Time;durP1;ratioP1;P1;durP2;ratioP2;P2;SDS_P1;SDS_P2;PMS_P1;PMS_P2;Temp;Humidity;BMP_temperature;BMP_pressure;BME280_temperature;BME280_humidity;BME280_pressure;Samples;Min_cycle;Max_cycle;Signal;HPM_P1;HPM_P2
2021/07/18 00:00:12;;;;;;;6.53;3.90;;;;;;;;;;5088743;28;20413;-73
2021/07/18 00:02:38;;;;;;;4.53;3.60;;;;;;;;;;5068616;28;20441;-73
2021/07/18 00:05:05;;;;;;;7.53;3.50;;;;;;;;;;5068402;28;20434;-74
2021/07/18 00:07:31;;;;;;;4.73;3.60;;;;;;;;;;5068505;28;20676;-71
2021/07/18 00:09:57;;;;;;;6.00;3.80;;;;;;;;;;5072538;28;20521;-73
2021/07/18 00:12:23;;;;;;;7.30;3.33;;;;;;;;;;5072364;28;20813;-74
2021/07/18 00:14:49;;;;;;;5.37;3.60;;;;;;;;;;5072362;28;20462;-75
2021/07/18 00:17:15;;;;;;;6.20;3.60;;;;;;;;;;5072131;28;20403;-75
2021/07/18 00:19:41;;;;;;;5.13;4.30;;;;;;;;;;5072037;28;20844;-72
2021/07/18 00:22:07;;;;;;;5.23;4.33;;;;;;;;;;5072255;28;20477;-73
2021/07/18 00:24:34;;;;;;;4.80;3.80;;;;;;;;;;5072291;28;20418;-73
2021/07/18 00:27:00;;;;;;;7.13;3.50;;;;;;;;;;5071885;28;20418;-75
2021/07/18 00:29:26;;;;;;;3.90;3.50;;;;;;;;;;5072018;28;20428;-75
2021/07/18 00:31:52;;;;;;;5.87;4.03;;;;;;;;;;5071890;28;20438;-73
2021/07/18 00:34:19;;;;;;;4.83;3.50;;;;;;;;;;5072016;28;20460;-73
2021/07/18 00:36:45;;;;;;;4.13;3.73;;;;;;;;;;5071789;28;20411;-74
2021/07/18 00:39:11;;;;;;;4.60;4.03;;;;;;;;;;5057889;28;20423;-74
2021/07/18 00:41:37;;;;;;;7.97;4.13;;;;;;;;;;5092204;28;20933;-76
2021/07/18 00:44:03;;;;;;;5.83;4.00;;;;;;;;;;5092247;28;20418;-75
2021/07/18 00:46:29;;;;;;;6.73;4.00;;;;;;;;;;5092248;28;20421;-73
2021/07/18 00:48:55;;;;;;;6.70;4.00;;;;;;;;;;5091723;28;20466;-74
2021/07/18 00:51:21;;;;;;;7.53;4.20;;;;;;;;;;5092156;28;20846;-72
2021/07/18 00:53:47;;;;;;;5.00;4.20;;;;;;;;;;5088648;28;20946;-73
2021/07/18 00:56:13;;;;;;;6.53;3.83;;;;;;;;;;5071675;28;20486;-74
2021/07/18 00:58:40;;;;;;;4.37;3.50;;;;;;;;;;5085623;28;20451;-72
2021/07/18 01:01:07;;;;;;;6.10;3.70;;;;;;;;;;5091872;28;20445;-75
2021/07/18 01:03:33;;;;;;;4.30;3.47;;;;;;;;;;5091780;28;20916;-73
2021/07/18 01:05:59;;;;;;;14.53;3.80;;;;;;;;;;5091571;28;20441;-75
2021/07/18 01:08:25;;;;;;;4.80;3.50;;;;;;;;;;5091419;28;20936;-74
2021/07/18 01:10:51;;;;;;;4.13;3.43;;;;;;;;;;5091605;28;20988;-72
2021/07/18 01:13:17;;;;;;;3.40;3.10;;;;;;;;;;5091603;28;20425;-73
2021/07/18 01:15:43;;;;;;;4.50;3.10;;;;;;;;;;5091104;28;20521;-74
2021/07/18 01:18:12;;;;;;;6.93;3.70;;;;;;;;;;5090877;28;20437;-74
2021/07/18 01:20:39;;;;;;;3.73;3.23;;;;;;;;;;5083888;28;20409;-74
2021/07/18 01:23:05;;;;;;;7.83;3.60;;;;;;;;;;5091371;28;20734;-72
2021/07/18 01:25:33;;;;;;;5.13;3.70;;;;;;;;;;5091526;28;20785;-76
2021/07/18 01:27:59;;;;;;;7.00;4.00;;;;;;;;;;5089503;28;20421;-72
2021/07/18 01:30:25;;;;;;;4.90;3.53;;;;;;;;;;5071006;28;20419;-73
2021/07/18 01:32:51;;;;;;;5.93;3.53;;;;;;;;;;5070851;28;20438;-76
2021/07/18 01:35:17;;;;;;;5.07;4.20;;;;;;;;;;5070981;28;20509;-73
2021/07/18 01:37:43;;;;;;;8.43;4.00;;;;;;;;;;5070415;28;20443;-73
2021/07/18 01:40:10;;;;;;;4.27;3.43;;;;;;;;;;5070655;28;20442;-74
2021/07/18 01:42:37;;;;;;;5.97;3.60;;;;;;;;;;5089880;28;20465;-75
2021/07/18 01:45:04;;;;;;;5.80;3.60;;;;;;;;;;5094692;28;20414;-74
2021/07/18 01:47:30;;;;;;;4.13;3.67;;;;;;;;;;5094273;28;20505;-74
2021/07/18 01:49:56;;;;;;;4.83;3.27;;;;;;;;;;5088736;28;20426;-73
2021/07/18 01:52:22;;;;;;;4.30;3.10;;;;;;;;;;5072755;28;20438;-75
2021/07/18 01:54:48;;;;;;;4.30;3.50;;;;;;;;;;5074034;28;20449;-75
2021/07/18 01:57:18;;;;;;;5.20;3.60;;;;;;;;;;5075560;28;20430;-75
2021/07/18 01:59:45;;;;;;;6.20;3.40;;;;;;;;;;5094442;28;20466;-73
2021/07/18 02:02:11;;;;;;;6.57;3.57;;;;;;;;;;5094023;28;20432;-74
2021/07/18 02:04:37;;;;;;;8.33;3.70;;;;;;;;;;5094156;28;20463;-74
2021/07/18 02:07:04;;;;;;;6.87;3.97;;;;;;;;;;5094024;28;20770;-74
2021/07/18 02:09:30;;;;;;;5.63;4.00;;;;;;;;;;5094266;28;20436;-73
2021/07/18 02:11:56;;;;;;;6.87;3.73;;;;;;;;;;5093956;28;20938;-73
2021/07/18 02:14:22;;;;;;;6.13;3.63;;;;;;;;;;5093908;28;20464;-73
2021/07/18 02:16:49;;;;;;;5.83;3.97;;;;;;;;;;5093661;28;20405;-75
2021/07/18 02:19:16;;;;;;;3.97;3.43;;;;;;;;;;5094153;28;20447;-74
2021/07/18 02:21:42;;;;;;;4.93;3.23;;;;;;;;;;5089123;28;20514;-75
2021/07/18 02:24:09;;;;;;;8.60;5.03;;;;;;;;;;5073907;28;20418;-73
2021/07/18 02:26:35;;;;;;;5.63;3.37;;;;;;;;;;5073081;28;20840;-72
2021/07/18 02:29:01;;;;;;;5.70;3.33;;;;;;;;;;5073471;28;20419;-72
2021/07/18 02:31:28;;;;;;;6.43;3.73;;;;;;;;;;5073526;28;20999;-75
2021/07/18 02:33:54;;;;;;;6.40;3.23;;;;;;;;;;5073399;28;20442;-72
2021/07/18 02:36:20;;;;;;;5.17;4.10;;;;;;;;;;5073460;28;20503;-74
2021/07/18 02:38:46;;;;;;;9.30;3.90;;;;;;;;;;5072938;28;20419;-73
2021/07/18 02:41:13;;;;;;;5.33;3.47;;;;;;;;;;5073104;28;20430;-74
2021/07/18 02:43:39;;;;;;;5.97;3.70;;;;;;;;;;5073347;28;20399;-72
2021/07/18 02:46:06;;;;;;;5.03;3.40;;;;;;;;;;5073091;28;20501;-72
2021/07/18 02:48:32;;;;;;;6.10;3.73;;;;;;;;;;5072503;28;20414;-74
2021/07/18 02:50:58;;;;;;;5.00;3.90;;;;;;;;;;5072917;28;20954;-74
2021/07/18 02:53:24;;;;;;;5.53;3.90;;;;;;;;;;5072988;28;20419;-74
2021/07/18 02:55:50;;;;;;;9.80;3.70;;;;;;;;;;5072939;28;20512;-74
2021/07/18 02:58:16;;;;;;;7.60;3.33;;;;;;;;;;5083829;28;20401;-74
2021/07/18 03:00:42;;;;;;;4.93;3.47;;;;;;;;;;5091579;28;20421;-72
2021/07/18 03:03:08;;;;;;;6.57;4.03;;;;;;;;;;5093359;28;20417;-72
2021/07/18 03:05:34;;;;;;;7.73;3.97;;;;;;;;;;5093119;28;20437;-75
2021/07/18 03:08:00;;;;;;;4.83;3.43;;;;;;;;;;5093140;28;20792;-74
2021/07/18 03:10:26;;;;;;;6.50;3.73;;;;;;;;;;5092915;28;20414;-73
2021/07/18 03:12:52;;;;;;;4.43;3.77;;;;;;;;;;5093056;28;20774;-74
2021/07/18 03:15:18;;;;;;;6.80;3.50;;;;;;;;;;5092953;28;20468;-72
2021/07/18 03:17:45;;;;;;;7.03;4.03;;;;;;;;;;5092773;28;20405;-72
2021/07/18 03:20:12;;;;;;;9.43;4.53;;;;;;;;;;5092943;28;20417;-72
2021/07/18 03:22:38;;;;;;;5.70;3.83;;;;;;;;;;5092850;28;20522;-73
2021/07/18 03:25:05;;;;;;;4.63;3.50;;;;;;;;;;5092612;28;20466;-74
2021/07/18 03:27:31;;;;;;;4.63;3.77;;;;;;;;;;5092718;28;20412;-71
2021/07/18 03:29:57;;;;;;;8.13;3.97;;;;;;;;;;5075169;28;20793;-74
2021/07/18 03:32:23;;;;;;;6.20;3.60;;;;;;;;;;5072745;28;20462;-74
2021/07/18 03:34:49;;;;;;;6.87;3.73;;;;;;;;;;5072261;28;20512;-74
2021/07/18 03:37:16;;;;;;;5.20;4.00;;;;;;;;;;5072139;28;20499;-73
2021/07/18 03:39:42;;;;;;;7.10;4.27;;;;;;;;;;5072329;28;20423;-75
2021/07/18 03:42:08;;;;;;;6.10;3.83;;;;;;;;;;5072473;28;20441;-73
2021/07/18 03:44:34;;;;;;;4.40;4.00;;;;;;;;;;5075938;28;20467;-72
2021/07/18 03:47:00;;;;;;;7.13;4.53;;;;;;;;;;5076003;28;20418;-72
2021/07/18 03:49:26;;;;;;;9.47;4.53;;;;;;;;;;5076336;28;20421;-75
2021/07/18 03:51:52;;;;;;;7.20;4.30;;;;;;;;;;5076352;28;20430;-74
2021/07/18 03:54:20;;;;;;;5.53;4.07;;;;;;;;;;5076422;28;20950;-75
2021/07/18 03:56:46;;;;;;;8.03;4.90;;;;;;;;;;5076249;28;20548;-74
2021/07/18 03:59:12;;;;;;;7.20;4.93;;;;;;;;;;5076180;28;20486;-74
2021/07/18 04:01:38;;;;;;;4.97;4.20;;;;;;;;;;5076248;28;20516;-74
2021/07/18 04:04:04;;;;;;;8.10;4.80;;;;;;;;;;5076456;28;20736;-71
2021/07/18 04:06:30;;;;;;;9.07;4.33;;;;;;;;;;5075972;28;20426;-74
2021/07/18 04:08:56;;;;;;;8.03;5.37;;;;;;;;;;5075881;28;20406;-74
2021/07/18 04:11:22;;;;;;;8.87;4.70;;;;;;;;;;5076070;28;20461;-74
2021/07/18 04:13:48;;;;;;;6.33;5.00;;;;;;;;;;5075953;28;20438;-72
2021/07/18 04:16:15;;;;;;;5.13;4.60;;;;;;;;;;5074705;28;20418;-74
2021/07/18 04:18:41;;;;;;;6.23;4.20;;;;;;;;;;5075511;28;20406;-72
2021/07/18 04:21:07;;;;;;;6.20;5.30;;;;;;;;;;5075420;28;20430;-73
2021/07/18 04:23:33;;;;;;;5.53;4.87;;;;;;;;;;5075878;28;20890;-73
2021/07/18 04:25:59;;;;;;;6.27;5.10;;;;;;;;;;5075886;28;20414;-76
2021/07/18 04:28:25;;;;;;;10.37;5.10;;;;;;;;;;5075357;28;20418;-74
2021/07/18 04:30:51;;;;;;;6.73;4.70;;;;;;;;;;5075885;28;20529;-75
2021/07/18 04:33:17;;;;;;;6.10;4.40;;;;;;;;;;5075779;28;20414;-73
2021/07/18 04:35:43;;;;;;;7.13;4.67;;;;;;;;;;5075400;28;20516;-76
2021/07/18 04:38:09;;;;;;;7.57;4.70;;;;;;;;;;5070815;28;20429;-73
2021/07/18 04:40:35;;;;;;;8.30;4.90;;;;;;;;;;5092131;28;20889;-72
2021/07/18 04:43:02;;;;;;;6.00;4.73;;;;;;;;;;5096267;28;20402;-72
2021/07/18 04:45:28;;;;;;;6.07;4.37;;;;;;;;;;5095484;28;20475;-74
2021/07/18 04:47:55;;;;;;;7.00;4.93;;;;;;;;;;5095524;28;20417;-73
2021/07/18 04:50:22;;;;;;;6.67;5.00;;;;;;;;;;5095413;28;20414;-74
2021/07/18 04:52:48;;;;;;;5.20;4.70;;;;;;;;;;5095676;28;20437;-72
2021/07/18 04:55:15;;;;;;;6.40;4.67;;;;;;;;;;5093950;28;20560;-72
2021/07/18 04:57:41;;;;;;;5.77;4.93;;;;;;;;;;5081878;28;20527;-75
2021/07/18 05:00:08;;;;;;;9.77;4.30;;;;;;;;;;5075428;28;20418;-75
2021/07/18 05:02:34;;;;;;;7.20;4.60;;;;;;;;;;5075350;28;20435;-75
2021/07/18 05:05:00;;;;;;;4.60;4.20;;;;;;;;;;5074889;28;20437;-72
2021/07/18 05:07:26;;;;;;;4.33;3.90;;;;;;;;;;5074965;28;20494;-73
2021/07/18 05:09:52;;;;;;;4.70;4.30;;;;;;;;;;5074931;28;20414;-73
2021/07/18 05:12:19;;;;;;;4.93;4.20;;;;;;;;;;5075001;28;20431;-75
2021/07/18 05:14:46;;;;;;;7.67;4.00;;;;;;;;;;5075091;28;20556;-70
2021/07/18 05:17:12;;;;;;;5.37;3.70;;;;;;;;;;5074447;28;20509;-72
2021/07/18 05:19:39;;;;;;;5.20;4.00;;;;;;;;;;5074571;28;20417;-74
2021/07/18 05:22:05;;;;;;;6.40;4.47;;;;;;;;;;5085292;28;20463;-73
2021/07/18 05:24:31;;;;;;;4.20;3.77;;;;;;;;;;5095041;28;20417;-72
2021/07/18 05:26:57;;;;;;;4.50;4.10;;;;;;;;;;5094466;28;20421;-74
2021/07/18 05:29:23;;;;;;;4.17;3.80;;;;;;;;;;5082320;28;20416;-72
2021/07/18 05:31:49;;;;;;;6.10;3.73;;;;;;;;;;5085237;28;20942;-74
2021/07/18 05:34:15;;;;;;;5.03;3.83;;;;;;;;;;5094495;28;20514;-73
2021/07/18 05:36:41;;;;;;;6.80;4.30;;;;;;;;;;5094231;28;20405;-74
2021/07/18 05:39:07;;;;;;;6.47;4.30;;;;;;;;;;5075833;28;20412;-75
2021/07/18 05:41:33;;;;;;;7.77;4.53;;;;;;;;;;5094480;28;20422;-73
2021/07/18 05:43:59;;;;;;;5.20;4.10;;;;;;;;;;5094488;28;20811;-73
2021/07/18 05:46:25;;;;;;;6.47;4.30;;;;;;;;;;5094626;28;20418;-72
2021/07/18 05:48:51;;;;;;;8.40;4.43;;;;;;;;;;5093979;28;20410;-72
2021/07/18 05:51:18;;;;;;;4.93;4.40;;;;;;;;;;5094666;28;20426;-75
2021/07/18 05:53:44;;;;;;;7.50;3.80;;;;;;;;;;5094267;28;20410;-75
2021/07/18 05:56:10;;;;;;;6.63;4.30;;;;;;;;;;5093469;28;20464;-72
2021/07/18 05:58:35;;;;;;;4.03;3.43;;;;;;;;;;5074083;28;20437;-73
2021/07/18 06:01:02;;;;;;;11.03;4.70;;;;;;;;;;5074035;28;20427;-75
2021/07/18 06:03:28;;;;;;;4.70;3.80;;;;;;;;;;5074097;28;20419;-73
2021/07/18 06:05:54;;;;;;;6.30;4.00;;;;;;;;;;5073386;28;20458;-75
2021/07/18 06:08:20;;;;;;;7.57;3.80;;;;;;;;;;5073771;28;20417;-75
2021/07/18 06:10:46;;;;;;;6.73;3.53;;;;;;;;;;5073933;28;20425;-72
2021/07/18 06:13:12;;;;;;;7.30;4.67;;;;;;;;;;5073816;28;20755;-74
2021/07/18 06:15:38;;;;;;;6.70;3.93;;;;;;;;;;5073758;28;20456;-74
2021/07/18 06:18:04;;;;;;;5.37;3.93;;;;;;;;;;5073342;28;20417;-73
2021/07/18 06:20:30;;;;;;;5.50;3.60;;;;;;;;;;5073930;28;20570;-74
2021/07/18 06:22:56;;;;;;;5.30;4.17;;;;;;;;;;5073666;28;20771;-74
2021/07/18 06:25:22;;;;;;;5.13;4.57;;;;;;;;;;5073876;28;20428;-73
2021/07/18 06:27:48;;;;;;;4.73;4.33;;;;;;;;;;5073202;28;20411;-75
2021/07/18 06:30:14;;;;;;;6.00;3.70;;;;;;;;;;5073413;28;20406;-75
2021/07/18 06:32:41;;;;;;;7.03;4.20;;;;;;;;;;5090819;28;20441;-75
2021/07/18 06:35:08;;;;;;;10.20;7.33;;;;;;;;;;5093722;28;20783;-73
2021/07/18 06:37:34;;;;;;;5.20;3.90;;;;;;;;;;5087272;28;20421;-72
2021/07/18 06:40:01;;;;;;;4.70;4.10;;;;;;;;;;5073474;28;20534;-72
2021/07/18 06:42:27;;;;;;;7.97;4.10;;;;;;;;;;5073068;28;20463;-75
2021/07/18 06:44:53;;;;;;;6.53;3.87;;;;;;;;;;5073629;28;20480;-73
2021/07/18 06:47:19;;;;;;;4.80;3.57;;;;;;;;;;5072738;28;20980;-75
2021/07/18 06:49:45;;;;;;;4.97;3.90;;;;;;;;;;5073377;28;20829;-74
2021/07/18 06:52:11;;;;;;;5.10;3.10;;;;;;;;;;5073190;28;20860;-76
2021/07/18 06:54:38;;;;;;;8.33;3.53;;;;;;;;;;5073125;28;20553;-74
2021/07/18 06:57:04;;;;;;;5.30;3.80;;;;;;;;;;5074136;28;20407;-71
2021/07/18 06:59:30;;;;;;;4.93;3.30;;;;;;;;;;5093326;28;20409;-76
2021/07/18 07:01:56;;;;;;;7.23;3.40;;;;;;;;;;5093273;28;20441;-73
2021/07/18 07:04:22;;;;;;;5.87;3.60;;;;;;;;;;5093304;28;20889;-73
2021/07/18 07:06:48;;;;;;;4.90;3.90;;;;;;;;;;5078038;28;20448;-74
2021/07/18 07:09:14;;;;;;;5.77;3.97;;;;;;;;;;5080799;28;20425;-73
2021/07/18 07:11:40;;;;;;;5.40;4.17;;;;;;;;;;5093209;28;20821;-76
2021/07/18 07:14:06;;;;;;;6.10;4.20;;;;;;;;;;5093130;28;20470;-73
2021/07/18 07:16:32;;;;;;;7.40;3.70;;;;;;;;;;5092613;28;20796;-73
2021/07/18 07:18:58;;;;;;;5.53;4.13;;;;;;;;;;5087680;28;20422;-71
2021/07/18 07:21:24;;;;;;;4.30;3.90;;;;;;;;;;5072571;28;20431;-73
2021/07/18 07:23:50;;;;;;;3.77;3.47;;;;;;;;;;5072953;28;20407;-71
2021/07/18 07:26:16;;;;;;;4.53;3.63;;;;;;;;;;5087853;28;20420;-73
2021/07/18 07:28:42;;;;;;;5.37;3.27;;;;;;;;;;5085065;28;20415;-72
2021/07/18 07:31:08;;;;;;;4.50;4.10;;;;;;;;;;5073258;28;20524;-74
2021/07/18 07:33:35;;;;;;;6.97;3.57;;;;;;;;;;5073059;28;20870;-73
2021/07/18 07:36:01;;;;;;;5.63;3.87;;;;;;;;;;5072861;28;20488;-73
2021/07/18 07:38:27;;;;;;;4.00;3.00;;;;;;;;;;5071866;28;20829;-72
2021/07/18 07:40:53;;;;;;;3.73;3.17;;;;;;;;;;5072463;28;20435;-74
2021/07/18 07:43:19;;;;;;;3.63;3.07;;;;;;;;;;5072512;28;20417;-73
2021/07/18 07:45:46;;;;;;;3.17;2.87;;;;;;;;;;5072465;28;20426;-75
2021/07/18 07:48:12;;;;;;;2.90;2.60;;;;;;;;;;5072552;28;20426;-73
2021/07/18 07:50:38;;;;;;;5.30;3.60;;;;;;;;;;5073832;28;20411;-74
2021/07/18 07:53:05;;;;;;;3.97;3.00;;;;;;;;;;5092826;28;20432;-72
2021/07/18 07:55:32;;;;;;;6.87;3.33;;;;;;;;;;5093005;28;20464;-73
2021/07/18 07:57:58;;;;;;;6.40;5.73;;;;;;;;;;5076767;28;20449;-71
2021/07/18 08:00:24;;;;;;;4.40;2.80;;;;;;;;;;5072541;28;20414;-72
2021/07/18 08:02:50;;;;;;;4.17;2.90;;;;;;;;;;5072270;28;20430;-73
2021/07/18 08:05:17;;;;;;;3.80;2.70;;;;;;;;;;5072482;28;20469;-71
2021/07/18 08:07:43;;;;;;;3.20;2.90;;;;;;;;;;5072326;28;20418;-74
2021/07/18 08:10:19;;;;;;;3.80;2.83;;;;;;;;;;5072399;28;20419;-75
2021/07/18 08:12:46;;;;;;;3.83;2.60;;;;;;;;;;5072197;28;20434;-73
2021/07/18 08:15:15;;;;;;;4.23;3.13;;;;;;;;;;5072204;28;20912;-71
2021/07/18 08:17:42;;;;;;;4.70;3.07;;;;;;;;;;5072044;28;20410;-74
2021/07/18 08:20:15;;;;;;;4.00;2.53;;;;;;;;;;5072201;28;20403;-73
2021/07/18 08:22:41;;;;;;;5.07;3.30;;;;;;;;;;5071981;28;20935;-74
2021/07/18 08:25:08;;;;;;;3.23;2.40;;;;;;;;;;5071898;28;20414;-74
2021/07/18 08:27:35;;;;;;;4.20;2.60;;;;;;;;;;5071784;28;20426;-71
2021/07/18 08:30:04;;;;;;;4.20;2.60;;;;;;;;;;5074980;28;20442;-74
2021/07/18 08:32:30;;;;;;;3.73;2.50;;;;;;;;;;5075732;28;20430;-74
2021/07/18 08:34:56;;;;;;;3.60;2.40;;;;;;;;;;5076056;28;20865;-76
2021/07/18 08:37:22;;;;;;;5.23;3.10;;;;;;;;;;5075141;28;20398;-72
2021/07/18 08:39:48;;;;;;;3.53;2.50;;;;;;;;;;5075740;28;20417;-74
2021/07/18 08:42:15;;;;;;;3.60;2.50;;;;;;;;;;5088204;28;20808;-72
2021/07/18 08:44:42;;;;;;;5.43;3.00;;;;;;;;;;5096019;28;20496;-73
2021/07/18 08:47:08;;;;;;;4.20;2.73;;;;;;;;;;5095926;28;20782;-75
2021/07/18 08:49:34;;;;;;;4.23;3.00;;;;;;;;;;5096002;28;20437;-74
2021/07/18 08:52:00;;;;;;;5.30;2.80;;;;;;;;;;5083493;28;20426;-74
2021/07/18 08:54:27;;;;;;;3.63;2.83;;;;;;;;;;5075476;28;20460;-75
2021/07/18 08:56:56;;;;;;;4.63;2.97;;;;;;;;;;5075203;28;20403;-74
2021/07/18 08:59:22;;;;;;;5.43;2.43;;;;;;;;;;5094641;28;20413;-75
2021/07/18 09:01:48;;;;;;;4.87;3.20;;;;;;;;;;5095596;28;20508;-73
2021/07/18 09:04:14;;;;;;;4.37;3.27;;;;;;;;;;5081494;28;20829;-75
2021/07/18 09:06:48;;;;;;;6.63;3.67;;;;;;;;;;5074896;28;20521;-74
2021/07/18 09:09:15;;;;;;;4.60;3.20;;;;;;;;;;5075122;28;20702;-74
2021/07/18 09:11:42;;;;;;;5.13;3.17;;;;;;;;;;5069128;28;20461;-75
2021/07/18 09:14:09;;;;;;;4.70;2.70;;;;;;;;;;5075160;28;20755;-74
2021/07/18 09:16:39;;;;;;;6.40;3.53;;;;;;;;;;5074838;28;20418;-76
2021/07/18 09:19:14;;;;;;;4.27;2.80;;;;;;;;;;5075107;28;20410;-74
2021/07/18 09:21:40;;;;;;;4.30;2.70;;;;;;;;;;5074793;28;20426;-72
2021/07/18 09:24:22;;;;;;;4.80;3.30;;;;;;;;;;5075033;28;20408;-73
2021/07/18 09:27:07;;;;;;;5.93;3.10;;;;;;;;;;5071331;28;20444;-72
2021/07/18 09:29:34;;;;;;;6.80;3.50;;;;;;;;;;5070830;28;20685;-74
2021/07/18 09:32:10;;;;;;;5.13;3.20;;;;;;;;;;5071270;28;20783;-75
2021/07/18 09:34:38;;;;;;;3.83;3.17;;;;;;;;;;5066144;28;20496;-74
2021/07/18 09:37:12;;;;;;;5.43;3.33;;;;;;;;;;5070589;28;20547;-73
2021/07/18 09:39:39;;;;;;;3.50;2.83;;;;;;;;;;5070648;28;20513;-76
2021/07/18 09:42:05;;;;;;;4.27;3.10;;;;;;;;;;5070124;28;20435;-72
2021/07/18 09:44:41;;;;;;;5.43;2.70;;;;;;;;;;5074244;28;20523;-72
2021/07/18 09:47:08;;;;;;;3.27;2.80;;;;;;;;;;5090836;28;20429;-75
2021/07/18 09:49:34;;;;;;;4.43;2.90;;;;;;;;;;5090598;28;20421;-74
2021/07/18 09:52:16;;;;;;;3.27;2.80;;;;;;;;;;5090865;28;20433;-72
2021/07/18 09:54:42;;;;;;;4.53;3.30;;;;;;;;;;5090736;28;20564;-72
2021/07/18 09:57:09;;;;;;;4.77;3.00;;;;;;;;;;5081923;28;20884;-72
2021/07/18 09:59:36;;;;;;;5.23;3.00;;;;;;;;;;5070427;28;20465;-72
2021/07/18 10:02:04;;;;;;;3.40;2.67;;;;;;;;;;5070328;28;20426;-73
2021/07/18 10:04:30;;;;;;;4.23;3.10;;;;;;;;;;5070486;28;20418;-72
2021/07/18 10:07:06;;;;;;;4.07;2.93;;;;;;;;;;5069884;28;20563;-74
2021/07/18 10:09:32;;;;;;;4.80;2.40;;;;;;;;;;5070104;28;20425;-74
2021/07/18 10:11:58;;;;;;;4.60;2.80;;;;;;;;;;5070094;28;20466;-75
2021/07/18 10:14:25;;;;;;;7.00;2.70;;;;;;;;;;5070158;28;20516;-75
2021/07/18 10:16:53;;;;;;;5.37;2.83;;;;;;;;;;5069847;28;20515;-72
2021/07/18 10:19:20;;;;;;;2.60;1.80;;;;;;;;;;5070003;28;20421;-75
2021/07/18 10:21:46;;;;;;;5.17;2.40;;;;;;;;;;5069674;28;20435;-75
2021/07/18 10:24:14;;;;;;;4.43;2.50;;;;;;;;;;5070090;28;20915;-72
2021/07/18 10:26:40;;;;;;;4.10;2.33;;;;;;;;;;5069847;28;20994;-74
2021/07/18 10:29:06;;;;;;;2.87;2.20;;;;;;;;;;5069910;28;20911;-73
2021/07/18 10:31:44;;;;;;;3.80;2.10;;;;;;;;;;5069722;28;20457;-74
2021/07/18 10:34:11;;;;;;;2.93;2.30;;;;;;;;;;5070239;28;20506;-75
2021/07/18 10:36:37;;;;;;;7.17;2.50;;;;;;;;;;5069553;28;20440;-75
2021/07/18 10:39:22;;;;;;;2.97;2.23;;;;;;;;;;5056462;28;20423;-75
2021/07/18 10:41:48;;;;;;;3.43;1.97;;;;;;;;;;5062374;28;20529;-73
2021/07/18 10:44:15;;;;;;;2.93;2.00;;;;;;;;;;5069375;28;20414;-75
2021/07/18 10:46:41;;;;;;;2.97;2.10;;;;;;;;;;5069116;28;20438;-75
2021/07/18 10:49:14;;;;;;;6.07;2.27;;;;;;;;;;5069380;28;20422;-72
2021/07/18 10:51:44;;;;;;;2.90;1.80;;;;;;;;;;5069120;28;20441;-74
2021/07/18 10:54:11;;;;;;;3.40;2.00;;;;;;;;;;5069027;28;20422;-73
2021/07/18 10:56:44;;;;;;;2.70;2.20;;;;;;;;;;5068857;28;20410;-74
2021/07/18 10:59:10;;;;;;;3.10;1.97;;;;;;;;;;5069166;28;20452;-75
2021/07/18 11:01:39;;;;;;;3.50;1.70;;;;;;;;;;5069155;28;20482;-74
2021/07/18 11:04:06;;;;;;;4.17;1.93;;;;;;;;;;5069187;28;20509;-71
2021/07/18 11:06:34;;;;;;;3.17;1.90;;;;;;;;;;5069037;28;20537;-73
2021/07/18 11:09:06;;;;;;;3.97;2.00;;;;;;;;;;5069073;28;20437;-75
2021/07/18 11:11:42;;;;;;;7.70;2.47;;;;;;;;;;5068851;28;20438;-72
2021/07/18 11:14:23;;;;;;;2.87;2.17;;;;;;;;;;5068085;28;20755;-72
2021/07/18 11:16:50;;;;;;;3.00;2.20;;;;;;;;;;5068917;28;20821;-73
2021/07/18 11:19:35;;;;;;;3.20;1.93;;;;;;;;;;5069087;28;20410;-72
2021/07/18 11:22:04;;;;;;;3.63;1.70;;;;;;;;;;5068710;28;20426;-73
2021/07/18 11:24:47;;;;;;;2.60;1.80;;;;;;;;;;5068978;28;20430;-72
2021/07/18 11:27:39;;;;;;;3.60;1.83;;;;;;;;;;5060312;28;20433;-75
2021/07/18 11:30:25;;;;;;;3.37;1.97;;;;;;;;;;5067693;28;20500;-74
2021/07/18 11:32:53;;;;;;;4.43;1.63;;;;;;;;;;5068981;28;20466;-72
2021/07/18 11:35:19;;;;;;;2.27;1.60;;;;;;;;;;5068940;28;20961;-74
2021/07/18 11:37:48;;;;;;;4.00;1.90;;;;;;;;;;5069180;28;20491;-74
2021/07/18 11:40:14;;;;;;;5.17;4.77;;;;;;;;;;5069256;28;20568;-74
2021/07/18 11:42:40;;;;;;;7.37;6.50;;;;;;;;;;5069133;28;21027;-73
2021/07/18 11:45:08;;;;;;;12.77;11.70;;;;;;;;;;5069028;28;20414;-73
2021/07/18 11:47:34;;;;;;;2.90;1.67;;;;;;;;;;5067141;28;20457;-74
2021/07/18 11:50:00;;;;;;;21.33;19.13;;;;;;;;;;5068920;28;20450;-75
2021/07/18 11:52:26;;;;;;;3.00;2.10;;;;;;;;;;5068788;28;20843;-72
2021/07/18 11:54:53;;;;;;;3.47;2.20;;;;;;;;;;5068856;28;20558;-73
2021/07/18 11:57:20;;;;;;;3.67;3.37;;;;;;;;;;5071400;28;20428;-72
2021/07/18 11:59:50;;;;;;;2.60;1.90;;;;;;;;;;5088945;28;20448;-75
2021/07/18 12:02:17;;;;;;;2.50;1.77;;;;;;;;;;5085221;28;20436;-72
2021/07/18 12:04:43;;;;;;;2.23;1.70;;;;;;;;;;5091166;28;20417;-75
2021/07/18 12:07:10;;;;;;;2.63;1.60;;;;;;;;;;5092583;28;20424;-73
2021/07/18 12:09:37;;;;;;;4.27;1.80;;;;;;;;;;5092865;28;20421;-72
2021/07/18 12:12:05;;;;;;;2.23;1.60;;;;;;;;;;5092439;28;20437;-73
2021/07/18 12:14:34;;;;;;;3.70;2.00;;;;;;;;;;5092717;28;20480;-72
2021/07/18 12:17:01;;;;;;;2.40;1.73;;;;;;;;;;5092348;28;20475;-73
2021/07/18 12:19:29;;;;;;;2.30;1.60;;;;;;;;;;5092671;28;20428;-73
2021/07/18 12:21:55;;;;;;;2.87;1.73;;;;;;;;;;5083659;28;20445;-74
2021/07/18 12:24:26;;;;;;;2.90;1.80;;;;;;;;;;5092623;28;20959;-73
2021/07/18 12:26:52;;;;;;;5.33;1.83;;;;;;;;;;5092134;28;20486;-75
2021/07/18 12:29:18;;;;;;;3.30;1.87;;;;;;;;;;5080220;28;20414;-72
2021/07/18 12:31:45;;;;;;;2.77;1.70;;;;;;;;;;5072041;28;20460;-73
2021/07/18 12:34:12;;;;;;;3.13;1.73;;;;;;;;;;5072095;28;20418;-75
2021/07/18 12:37:13;;;;;;;2.50;1.60;;;;;;;;;;5071932;28;20406;-73
2021/07/18 12:39:42;;;;;;;3.10;1.60;;;;;;;;;;5027351;28;20995;-74
2021/07/18 12:42:10;;;;;;;4.10;2.40;;;;;;;;;;5059125;28;20476;-74
2021/07/18 12:44:44;;;;;;;3.00;1.70;;;;;;;;;;5072041;28;20445;-73
2021/07/18 12:47:24;;;;;;;3.33;2.20;;;;;;;;;;5071781;28;20423;-72
2021/07/18 12:50:22;;;;;;;7.50;5.87;;;;;;;;;;5071925;28;20414;-74
2021/07/18 12:52:49;;;;;;;11.20;10.00;;;;;;;;;;5045093;28;20446;-76
2021/07/18 12:55:15;;;;;;;4.10;2.30;;;;;;;;;;5071764;28;20552;-75
2021/07/18 12:57:42;;;;;;;2.50;2.10;;;;;;;;;;5077512;28;20428;-75
2021/07/18 13:00:10;;;;;;;3.20;2.30;;;;;;;;;;5091797;28;20569;-75
2021/07/18 13:02:36;;;;;;;4.90;2.20;;;;;;;;;;5091761;28;20430;-72
2021/07/18 13:05:06;;;;;;;3.13;2.03;;;;;;;;;;5091761;28;20434;-72
2021/07/18 13:07:32;;;;;;;3.80;2.20;;;;;;;;;;5091496;28;20485;-72
2021/07/18 13:10:09;;;;;;;3.33;2.80;;;;;;;;;;5091583;28;20810;-73
2021/07/18 13:12:35;;;;;;;3.53;2.63;;;;;;;;;;5091501;28;20469;-73
2021/07/18 13:15:16;;;;;;;3.50;2.50;;;;;;;;;;5081986;28;20465;-75
2021/07/18 13:17:49;;;;;;;3.70;2.57;;;;;;;;;;5090988;28;20406;-73
2021/07/18 13:20:15;;;;;;;3.40;2.10;;;;;;;;;;5091417;28;20471;-72
2021/07/18 13:22:47;;;;;;;3.90;2.00;;;;;;;;;;5083570;28;20437;-76
2021/07/18 13:25:26;;;;;;;3.03;2.50;;;;;;;;;;5091961;28;20417;-75
2021/07/18 13:27:52;;;;;;;3.43;2.13;;;;;;;;;;5090688;28;20417;-75
2021/07/18 13:30:20;;;;;;;3.30;2.30;;;;;;;;;;5071200;28;20770;-73
2021/07/18 13:32:47;;;;;;;2.73;1.93;;;;;;;;;;5071032;28;20965;-73
2021/07/18 13:35:17;;;;;;;2.93;2.20;;;;;;;;;;5071111;28;20489;-74
2021/07/18 13:37:53;;;;;;;2.40;2.17;;;;;;;;;;5070175;28;20418;-72
2021/07/18 13:40:22;;;;;;;3.40;2.10;;;;;;;;;;5070874;28;20418;-74
2021/07/18 13:42:48;;;;;;;3.90;2.10;;;;;;;;;;5070843;28;20426;-75
2021/07/18 13:45:14;;;;;;;3.00;2.23;;;;;;;;;;5069547;28;21029;-73
2021/07/18 13:47:40;;;;;;;4.97;2.33;;;;;;;;;;5070411;28;20449;-75
2021/07/18 13:50:07;;;;;;;3.97;2.67;;;;;;;;;;5070686;28;20986;-74
2021/07/18 13:52:33;;;;;;;4.73;2.50;;;;;;;;;;5070403;28;20434;-74
2021/07/18 13:54:59;;;;;;;3.80;2.73;;;;;;;;;;5069277;28;21047;-73
2021/07/18 13:57:25;;;;;;;3.67;2.20;;;;;;;;;;5073771;28;20409;-74
2021/07/18 13:59:51;;;;;;;5.83;2.27;;;;;;;;;;5090758;28;20437;-74
2021/07/18 14:02:17;;;;;;;3.10;2.13;;;;;;;;;;5086786;28;20484;-76
2021/07/18 14:04:43;;;;;;;2.90;2.30;;;;;;;;;;5070408;28;20414;-74
2021/07/18 14:07:09;;;;;;;6.33;2.40;;;;;;;;;;5070020;28;20425;-72
2021/07/18 14:09:35;;;;;;;5.60;2.20;;;;;;;;;;5069084;28;20942;-75
2021/07/18 14:12:01;;;;;;;4.97;2.20;;;;;;;;;;5070497;28;20489;-76
2021/07/18 14:14:27;;;;;;;4.27;2.20;;;;;;;;;;5070183;28;20450;-76
2021/07/18 14:16:53;;;;;;;3.63;2.60;;;;;;;;;;5070058;28;20428;-73
2021/07/18 14:19:19;;;;;;;3.43;2.60;;;;;;;;;;5070144;28;20673;-74
2021/07/18 14:21:45;;;;;;;3.60;2.10;;;;;;;;;;5070159;28;20442;-74
2021/07/18 14:24:11;;;;;;;2.80;2.50;;;;;;;;;;5069959;28;20414;-76
2021/07/18 14:26:37;;;;;;;4.83;2.70;;;;;;;;;;5069460;28;20429;-75
2021/07/18 14:29:05;;;;;;;4.20;3.30;;;;;;;;;;5070104;28;20426;-75
2021/07/18 14:31:32;;;;;;;3.93;2.47;;;;;;;;;;5069750;28;20470;-72
2021/07/18 14:33:58;;;;;;;3.27;2.60;;;;;;;;;;5069752;28;20418;-71
2021/07/18 14:36:24;;;;;;;3.87;3.20;;;;;;;;;;5069783;28;20531;-73
2021/07/18 14:38:50;;;;;;;3.40;2.77;;;;;;;;;;5055624;28;20477;-74
2021/07/18 14:41:16;;;;;;;4.67;2.97;;;;;;;;;;5078899;28;20519;-74
2021/07/18 14:43:42;;;;;;;5.90;2.80;;;;;;;;;;5069424;28;21174;-74